sensor_id;sensor_type;location;lat;lon;timestamp;P1;durP1;ratioP1;P2;durP2;ratioP2
13832;SDS011;6987;19.472;-99.276;2023-04-24T00:01:14;3.90;;;2.40;;
13832;SDS011;6987;19.472;-99.276;2023-04-24T00:03:45;3.33;;;3.08;;
13832;SDS011;6987;19.472;-99.276;2023-04-24T00:06:14;2.92;;;2.70;;
13832;SDS011;6987;19.472;-99.276;2023-04-24T00:08:43;5.88;;;3.10;;
13832;SDS011;6987;19.472;-99.276;2023-04-24T00:11:12;3.97;;;3.67;;
13832;SDS011;6987;19.472;-99.276;2023-04-24T00:13:43;5.50;;;3.03;;
13832;SDS011;6987;19.472;-99.276;2023-04-24T00:16:13;8.68;;;4.38;;
13832;SDS011;6987;19.472;-99.276;2023-04-24T00:18:42;3.90;;;3.60;;
13832;SDS011;6987;19.472;-99.276;2023-04-24T00:21:13;3.60;;;3.33;;
13832;SDS011;6987;19.472;-99.276;2023-04-24T00:23:43;3.72;;;3.38;;
13832;SDS011;6987;19.472;-99.276;2023-04-24T00:26:13;6.03;;;3.72;;
13832;SDS011;6987;19.472;-99.276;2023-04-24T00:28:44;4.45;;;4.05;;
13832;SDS011;6987;19.472;-99.276;2023-04-24T00:31:14;8.45;;;4.50;;
13832;SDS011;6987;19.472;-99.276;2023-04-24T00:33:43;6.53;;;4.95;;
13832;SDS011;6987;19.472;-99.276;2023-04-24T00:36:12;12.35;;;7.20;;
13832;SDS011;6987;19.472;-99.276;2023-04-24T00:38:41;10.18;;;7.03;;
13832;SDS011;6987;19.472;-99.276;2023-04-24T00:41:10;9.70;;;6.43;;
13832;SDS011;6987;19.472;-99.276;2023-04-24T00:43:39;6.07;;;5.03;;
13832;SDS011;6987;19.472;-99.276;2023-04-24T00:46:10;4.93;;;4.28;;
13832;SDS011;6987;19.472;-99.276;2023-04-24T00:48:39;4.55;;;4.20;;
13832;SDS011;6987;19.472;-99.276;2023-04-24T00:51:08;4.32;;;3.88;;
13832;SDS011;6987;19.472;-99.276;2023-04-24T00:53:38;4.53;;;4.05;;
13832;SDS011;6987;19.472;-99.276;2023-04-24T00:56:06;9.15;;;4.50;;
13832;SDS011;6987;19.472;-99.276;2023-04-24T00:58:36;6.25;;;4.53;;
13832;SDS011;6987;19.472;-99.276;2023-04-24T01:01:09;4.90;;;3.97;;
13832;SDS011;6987;19.472;-99.276;2023-04-24T01:03:38;5.70;;;4.35;;
13832;SDS011;6987;19.472;-99.276;2023-04-24T01:06:08;8.55;;;5.38;;
13832;SDS011;6987;19.472;-99.276;2023-04-24T01:08:38;4.95;;;3.90;;
13832;SDS011;6987;19.472;-99.276;2023-04-24T01:11:07;4.90;;;4.10;;
13832;SDS011;6987;19.472;-99.276;2023-04-24T01:13:37;3.83;;;3.45;;
13832;SDS011;6987;19.472;-99.276;2023-04-24T01:16:06;4.03;;;3.60;;
13832;SDS011;6987;19.472;-99.276;2023-04-24T01:18:37;5.78;;;3.78;;
13832;SDS011;6987;19.472;-99.276;2023-04-24T01:21:09;4.03;;;3.83;;
13832;SDS011;6987;19.472;-99.276;2023-04-24T01:23:44;4.70;;;3.97;;
13832;SDS011;6987;19.472;-99.276;2023-04-24T01:26:14;4.40;;;4.10;;
13832;SDS011;6987;19.472;-99.276;2023-04-24T01:28:45;4.60;;;4.22;;
13832;SDS011;6987;19.472;-99.276;2023-04-24T01:31:15;4.35;;;3.97;;
13832;SDS011;6987;19.472;-99.276;2023-04-24T01:33:44;5.10;;;4.47;;
13832;SDS011;6987;19.472;-99.276;2023-04-24T01:36:13;6.53;;;4.28;;
13832;SDS011;6987;19.472;-99.276;2023-04-24T01:38:43;5.00;;;4.15;;
13832;SDS011;6987;19.472;-99.276;2023-04-24T01:41:12;7.90;;;4.53;;
13832;SDS011;6987;19.472;-99.276;2023-04-24T01:43:41;4.80;;;4.30;;
13832;SDS011;6987;19.472;-99.276;2023-04-24T01:46:10;5.80;;;4.75;;
13832;SDS011;6987;19.472;-99.276;2023-04-24T01:48:39;5.32;;;4.72;;
13832;SDS011;6987;19.472;-99.276;2023-04-24T01:51:08;4.80;;;4.40;;
13832;SDS011;6987;19.472;-99.276;2023-04-24T01:53:37;5.05;;;4.65;;
13832;SDS011;6987;19.472;-99.276;2023-04-24T01:56:08;4.65;;;4.25;;
13832;SDS011;6987;19.472;-99.276;2023-04-24T01:58:37;4.82;;;4.40;;
13832;SDS011;6987;19.472;-99.276;2023-04-24T02:01:06;5.20;;;4.70;;
13832;SDS011;6987;19.472;-99.276;2023-04-24T02:03:35;5.55;;;4.75;;
13832;SDS011;6987;19.472;-99.276;2023-04-24T02:06:04;5.32;;;4.93;;
13832;SDS011;6987;19.472;-99.276;2023-04-24T02:08:33;7.32;;;5.07;;
13832;SDS011;6987;19.472;-99.276;2023-04-24T02:11:02;6.43;;;5.25;;
13832;SDS011;6987;19.472;-99.276;2023-04-24T02:13:34;6.05;;;5.53;;
13832;SDS011;6987;19.472;-99.276;2023-04-24T02:16:03;5.85;;;5.32;;
13832;SDS011;6987;19.472;-99.276;2023-04-24T02:18:32;7.88;;;5.30;;
13832;SDS011;6987;19.472;-99.276;2023-04-24T02:21:01;5.88;;;5.38;;
13832;SDS011;6987;19.472;-99.276;2023-04-24T02:23:31;6.05;;;5.55;;
13832;SDS011;6987;19.472;-99.276;2023-04-24T02:26:00;7.38;;;5.68;;
13832;SDS011;6987;19.472;-99.276;2023-04-24T02:28:29;10.73;;;6.80;;
13832;SDS011;6987;19.472;-99.276;2023-04-24T02:31:01;6.38;;;5.88;;
13832;SDS011;6987;19.472;-99.276;2023-04-24T02:33:30;8.68;;;6.43;;
13832;SDS011;6987;19.472;-99.276;2023-04-24T02:35:59;6.43;;;5.43;;
13832;SDS011;6987;19.472;-99.276;2023-04-24T02:38:28;6.47;;;5.88;;
13832;SDS011;6987;19.472;-99.276;2023-04-24T02:40:58;6.63;;;5.95;;
13832;SDS011;6987;19.472;-99.276;2023-04-24T02:43:27;7.25;;;6.05;;
13832;SDS011;6987;19.472;-99.276;2023-04-24T02:45:56;6.70;;;6.10;;
13832;SDS011;6987;19.472;-99.276;2023-04-24T02:48:27;6.90;;;6.20;;
13832;SDS011;6987;19.472;-99.276;2023-04-24T02:50:56;12.48;;;7.20;;
13832;SDS011;6987;19.472;-99.276;2023-04-24T02:53:25;8.35;;;6.78;;
13832;SDS011;6987;19.472;-99.276;2023-04-24T02:55:55;6.72;;;6.15;;
13832;SDS011;6987;19.472;-99.276;2023-04-24T02:58:24;7.80;;;6.72;;
13832;SDS011;6987;19.472;-99.276;2023-04-24T03:00:53;7.90;;;6.00;;
13832;SDS011;6987;19.472;-99.276;2023-04-24T03:03:22;7.93;;;6.82;;
13832;SDS011;6987;19.472;-99.276;2023-04-24T03:05:53;8.10;;;5.93;;
13832;SDS011;6987;19.472;-99.276;2023-04-24T03:08:22;7.97;;;6.43;;
13832;SDS011;6987;19.472;-99.276;2023-04-24T03:10:51;6.18;;;5.63;;
13832;SDS011;6987;19.472;-99.276;2023-04-24T03:13:20;6.93;;;6.18;;
13832;SDS011;6987;19.472;-99.276;2023-04-24T03:15:49;6.65;;;5.97;;
13832;SDS011;6987;19.472;-99.276;2023-04-24T03:18:19;6.90;;;6.28;;
13832;SDS011;6987;19.472;-99.276;2023-04-24T03:20:49;7.18;;;6.57;;
13832;SDS011;6987;19.472;-99.276;2023-04-24T03:23:20;9.57;;;7.72;;
13832;SDS011;6987;19.472;-99.276;2023-04-24T03:25:48;7.90;;;7.30;;
13832;SDS011;6987;19.472;-99.276;2023-04-24T03:28:18;7.22;;;6.63;;
13832;SDS011;6987;19.472;-99.276;2023-04-24T03:30:47;10.55;;;6.78;;
13832;SDS011;6987;19.472;-99.276;2023-04-24T03:33:17;7.15;;;6.35;;
13832;SDS011;6987;19.472;-99.276;2023-04-24T03:35:46;7.78;;;7.18;;
13832;SDS011;6987;19.472;-99.276;2023-04-24T03:38:15;7.63;;;6.90;;
13832;SDS011;6987;19.472;-99.276;2023-04-24T03:40:46;7.50;;;6.05;;
13832;SDS011;6987;19.472;-99.276;2023-04-24T03:43:15;11.15;;;8.00;;
13832;SDS011;6987;19.472;-99.276;2023-04-24T03:45:44;10.48;;;7.13;;
13832;SDS011;6987;19.472;-99.276;2023-04-24T03:48:13;14.82;;;7.70;;
13832;SDS011;6987;19.472;-99.276;2023-04-24T03:50:42;7.75;;;6.85;;
13832;SDS011;6987;19.472;-99.276;2023-04-24T03:53:11;7.75;;;7.03;;
13832;SDS011;6987;19.472;-99.276;2023-04-24T03:55:40;9.82;;;7.72;;
13832;SDS011;6987;19.472;-99.276;2023-04-24T03:58:11;9.60;;;7.80;;
13832;SDS011;6987;19.472;-99.276;2023-04-24T04:00:41;8.75;;;7.78;;
13832;SDS011;6987;19.472;-99.276;2023-04-24T04:03:10;8.00;;;7.22;;
13832;SDS011;6987;19.472;-99.276;2023-04-24T04:05:40;11.25;;;8.25;;
13832;SDS011;6987;19.472;-99.276;2023-04-24T04:08:09;8.18;;;7.47;;
13832;SDS011;6987;19.472;-99.276;2023-04-24T04:10:38;8.18;;;7.38;;
13832;SDS011;6987;19.472;-99.276;2023-04-24T04:13:07;8.43;;;7.20;;
13832;SDS011;6987;19.472;-99.276;2023-04-24T04:15:38;8.40;;;7.53;;
13832;SDS011;6987;19.472;-99.276;2023-04-24T04:18:07;10.40;;;7.30;;
13832;SDS011;6987;19.472;-99.276;2023-04-24T04:20:36;8.32;;;7.53;;
13832;SDS011;6987;19.472;-99.276;2023-04-24T04:23:05;8.88;;;8.07;;
13832;SDS011;6987;19.472;-99.276;2023-04-24T04:25:34;8.93;;;8.02;;
13832;SDS011;6987;19.472;-99.276;2023-04-24T04:28:04;9.60;;;7.97;;
13832;SDS011;6987;19.472;-99.276;2023-04-24T04:30:33;8.80;;;7.43;;
13832;SDS011;6987;19.472;-99.276;2023-04-24T04:33:05;9.93;;;7.82;;
13832;SDS011;6987;19.472;-99.276;2023-04-24T04:35:36;9.65;;;8.40;;
13832;SDS011;6987;19.472;-99.276;2023-04-24T04:38:05;9.98;;;6.90;;
13832;SDS011;6987;19.472;-99.276;2023-04-24T04:40:36;10.00;;;8.23;;
13832;SDS011;6987;19.472;-99.276;2023-04-24T04:43:05;9.02;;;7.38;;
13832;SDS011;6987;19.472;-99.276;2023-04-24T04:45:35;8.70;;;7.80;;
13832;SDS011;6987;19.472;-99.276;2023-04-24T04:48:07;11.18;;;7.82;;
13832;SDS011;6987;19.472;-99.276;2023-04-24T04:50:39;9.70;;;7.85;;
13832;SDS011;6987;19.472;-99.276;2023-04-24T04:53:08;10.35;;;7.65;;
13832;SDS011;6987;19.472;-99.276;2023-04-24T04:55:38;9.80;;;7.93;;
13832;SDS011;6987;19.472;-99.276;2023-04-24T04:58:07;11.57;;;8.38;;
13832;SDS011;6987;19.472;-99.276;2023-04-24T05:00:36;8.30;;;7.50;;
13832;SDS011;6987;19.472;-99.276;2023-04-24T05:03:04;7.60;;;6.90;;
13832;SDS011;6987;19.472;-99.276;2023-04-24T05:05:35;9.80;;;7.65;;
13832;SDS011;6987;19.472;-99.276;2023-04-24T05:08:06;8.52;;;7.38;;
13832;SDS011;6987;19.472;-99.276;2023-04-24T05:10:35;8.80;;;7.18;;
13832;SDS011;6987;19.472;-99.276;2023-04-24T05:13:04;9.00;;;6.97;;
13832;SDS011;6987;19.472;-99.276;2023-04-24T05:15:33;7.47;;;6.72;;
13832;SDS011;6987;19.472;-99.276;2023-04-24T05:18:02;12.18;;;8.18;;
13832;SDS011;6987;19.472;-99.276;2023-04-24T05:20:31;7.75;;;7.03;;
13832;SDS011;6987;19.472;-99.276;2023-04-24T05:23:03;9.90;;;7.13;;
13832;SDS011;6987;19.472;-99.276;2023-04-24T05:25:32;7.82;;;7.03;;
13832;SDS011;6987;19.472;-99.276;2023-04-24T05:28:01;9.05;;;6.63;;
13832;SDS011;6987;19.472;-99.276;2023-04-24T05:30:30;7.38;;;6.78;;
13832;SDS011;6987;19.472;-99.276;2023-04-24T05:32:59;7.32;;;6.60;;
13832;SDS011;6987;19.472;-99.276;2023-04-24T05:35:29;7.68;;;6.47;;
13832;SDS011;6987;19.472;-99.276;2023-04-24T05:37:58;8.27;;;7.10;;
13832;SDS011;6987;19.472;-99.276;2023-04-24T05:40:29;9.25;;;7.15;;
13832;SDS011;6987;19.472;-99.276;2023-04-24T05:42:58;11.50;;;7.50;;
13832;SDS011;6987;19.472;-99.276;2023-04-24T05:45:28;8.13;;;7.32;;
13832;SDS011;6987;19.472;-99.276;2023-04-24T05:47:57;8.23;;;7.40;;
13832;SDS011;6987;19.472;-99.276;2023-04-24T05:50:26;9.65;;;7.97;;
13832;SDS011;6987;19.472;-99.276;2023-04-24T05:52:56;11.95;;;7.95;;
13832;SDS011;6987;19.472;-99.276;2023-04-24T05:55:29;8.18;;;7.35;;
13832;SDS011;6987;19.472;-99.276;2023-04-24T05:57:59;8.68;;;7.85;;
13832;SDS011;6987;19.472;-99.276;2023-04-24T06:00:27;9.57;;;7.05;;
13832;SDS011;6987;19.472;-99.276;2023-04-24T06:02:56;9.75;;;6.05;;
13832;SDS011;6987;19.472;-99.276;2023-04-24T06:05:25;7.22;;;6.53;;
13832;SDS011;6987;19.472;-99.276;2023-04-24T06:07:55;9.32;;;8.05;;
13832;SDS011;6987;19.472;-99.276;2023-04-24T06:10:24;8.88;;;7.63;;
13832;SDS011;6987;19.472;-99.276;2023-04-24T06:12:55;8.18;;;7.47;;
13832;SDS011;6987;19.472;-99.276;2023-04-24T06:15:27;7.82;;;7.13;;
13832;SDS011;6987;19.472;-99.276;2023-04-24T06:17:56;8.93;;;8.02;;
13832;SDS011;6987;19.472;-99.276;2023-04-24T06:20:25;10.32;;;7.45;;
13832;SDS011;6987;19.472;-99.276;2023-04-24T06:22:54;10.95;;;7.78;;
13832;SDS011;6987;19.472;-99.276;2023-04-24T06:25:25;8.82;;;7.93;;
13832;SDS011;6987;19.472;-99.276;2023-04-24T06:27:56;13.43;;;7.55;;
13832;SDS011;6987;19.472;-99.276;2023-04-24T06:30:25;10.75;;;7.68;;
13832;SDS011;6987;19.472;-99.276;2023-04-24T06:32:54;9.60;;;8.00;;
13832;SDS011;6987;19.472;-99.276;2023-04-24T06:35:24;9.20;;;7.35;;
13832;SDS011;6987;19.472;-99.276;2023-04-24T06:37:53;9.63;;;7.80;;
13832;SDS011;6987;19.472;-99.276;2023-04-24T06:40:22;9.07;;;8.23;;
13832;SDS011;6987;19.472;-99.276;2023-04-24T06:42:50;8.82;;;7.93;;
13832;SDS011;6987;19.472;-99.276;2023-04-24T06:45:22;9.50;;;8.52;;
13832;SDS011;6987;19.472;-99.276;2023-04-24T06:47:51;8.20;;;7.32;;
13832;SDS011;6987;19.472;-99.276;2023-04-24T06:50:21;15.70;;;10.85;;
13832;SDS011;6987;19.472;-99.276;2023-04-24T06:52:50;10.90;;;9.00;;
13832;SDS011;6987;19.472;-99.276;2023-04-24T06:55:19;10.50;;;8.43;;
13832;SDS011;6987;19.472;-99.276;2023-04-24T06:57:48;9.43;;;8.52;;
13832;SDS011;6987;19.472;-99.276;2023-04-24T07:00:17;11.27;;;8.93;;
13832;SDS011;6987;19.472;-99.276;2023-04-24T07:02:48;16.23;;;9.82;;
13832;SDS011;6987;19.472;-99.276;2023-04-24T07:05:17;10.18;;;8.85;;
13832;SDS011;6987;19.472;-99.276;2023-04-24T07:07:47;10.40;;;8.77;;
13832;SDS011;6987;19.472;-99.276;2023-04-24T07:10:17;10.48;;;8.63;;
13832;SDS011;6987;19.472;-99.276;2023-04-24T07:12:46;12.77;;;8.80;;
13832;SDS011;6987;19.472;-99.276;2023-04-24T07:15:15;10.90;;;9.20;;
13832;SDS011;6987;19.472;-99.276;2023-04-24T07:17:44;9.93;;;8.95;;
13832;SDS011;6987;19.472;-99.276;2023-04-24T07:20:15;11.40;;;8.27;;
13832;SDS011;6987;19.472;-99.276;2023-04-24T07:22:43;12.05;;;8.10;;
13832;SDS011;6987;19.472;-99.276;2023-04-24T07:25:13;10.20;;;7.93;;
13832;SDS011;6987;19.472;-99.276;2023-04-24T07:27:42;8.05;;;7.10;;
13832;SDS011;6987;19.472;-99.276;2023-04-24T07:30:11;11.85;;;7.88;;
13832;SDS011;6987;19.472;-99.276;2023-04-24T07:32:40;9.13;;;7.53;;
13832;SDS011;6987;19.472;-99.276;2023-04-24T07:35:09;10.35;;;8.63;;
13832;SDS011;6987;19.472;-99.276;2023-04-24T07:37:40;10.63;;;9.35;;
13832;SDS011;6987;19.472;-99.276;2023-04-24T07:40:11;12.30;;;10.65;;
13832;SDS011;6987;19.472;-99.276;2023-04-24T07:42:40;18.33;;;11.88;;
13832;SDS011;6987;19.472;-99.276;2023-04-24T07:45:09;14.70;;;12.02;;
13832;SDS011;6987;19.472;-99.276;2023-04-24T07:47:39;10.95;;;9.45;;
13832;SDS011;6987;19.472;-99.276;2023-04-24T07:50:09;14.77;;;10.85;;
13832;SDS011;6987;19.472;-99.276;2023-04-24T07:52:40;12.02;;;10.77;;
13832;SDS011;6987;19.472;-99.276;2023-04-24T07:55:09;15.88;;;12.40;;
13832;SDS011;6987;19.472;-99.276;2023-04-24T07:57:38;14.45;;;11.85;;
13832;SDS011;6987;19.472;-99.276;2023-04-24T08:00:07;14.38;;;12.18;;
13832;SDS011;6987;19.472;-99.276;2023-04-24T08:02:37;13.48;;;11.95;;
13832;SDS011;6987;19.472;-99.276;2023-04-24T08:05:06;15.77;;;11.95;;
13832;SDS011;6987;19.472;-99.276;2023-04-24T08:07:35;12.60;;;11.30;;
13832;SDS011;6987;19.472;-99.276;2023-04-24T08:10:07;13.15;;;11.35;;
13832;SDS011;6987;19.472;-99.276;2023-04-24T08:12:36;14.63;;;11.73;;
13832;SDS011;6987;19.472;-99.276;2023-04-24T08:15:06;15.85;;;10.43;;
13832;SDS011;6987;19.472;-99.276;2023-04-24T08:17:35;15.13;;;10.55;;
13832;SDS011;6987;19.472;-99.276;2023-04-24T08:20:05;13.30;;;10.48;;
13832;SDS011;6987;19.472;-99.276;2023-04-24T08:22:39;17.15;;;10.90;;
13832;SDS011;6987;19.472;-99.276;2023-04-24T08:25:10;12.52;;;11.32;;
13832;SDS011;6987;19.472;-99.276;2023-04-24T08:27:39;13.50;;;11.27;;
13832;SDS011;6987;19.472;-99.276;2023-04-24T08:30:08;13.15;;;10.90;;
13832;SDS011;6987;19.472;-99.276;2023-04-24T08:32:37;16.33;;;10.73;;
13832;SDS011;6987;19.472;-99.276;2023-04-24T08:35:07;11.77;;;10.57;;
13832;SDS011;6987;19.472;-99.276;2023-04-24T08:37:36;10.15;;;9.13;;
13832;SDS011;6987;19.472;-99.276;2023-04-24T08:40:06;12.70;;;10.25;;
13832;SDS011;6987;19.472;-99.276;2023-04-24T08:42:43;14.40;;;9.98;;
13832;SDS011;6987;19.472;-99.276;2023-04-24T08:45:12;12.50;;;9.27;;
13832;SDS011;6987;19.472;-99.276;2023-04-24T08:47:41;12.07;;;9.15;;
13832;SDS011;6987;19.472;-99.276;2023-04-24T08:50:11;11.52;;;8.88;;
13832;SDS011;6987;19.472;-99.276;2023-04-24T08:52:41;14.18;;;9.43;;
13832;SDS011;6987;19.472;-99.276;2023-04-24T08:55:10;9.70;;;8.80;;
13832;SDS011;6987;19.472;-99.276;2023-04-24T08:57:40;10.70;;;8.63;;
13832;SDS011;6987;19.472;-99.276;2023-04-24T09:00:13;10.55;;;8.98;;
13832;SDS011;6987;19.472;-99.276;2023-04-24T09:02:42;13.25;;;9.25;;
13832;SDS011;6987;19.472;-99.276;2023-04-24T09:05:11;9.55;;;8.68;;
13832;SDS011;6987;19.472;-99.276;2023-04-24T09:07:41;9.07;;;8.13;;
13832;SDS011;6987;19.472;-99.276;2023-04-24T09:10:13;9.45;;;8.45;;
13832;SDS011;6987;19.472;-99.276;2023-04-24T09:12:42;9.80;;;8.80;;
13832;SDS011;6987;19.472;-99.276;2023-04-24T09:15:14;9.38;;;8.45;;
13832;SDS011;6987;19.472;-99.276;2023-04-24T09:17:44;9.75;;;8.75;;
13832;SDS011;6987;19.472;-99.276;2023-04-24T09:20:13;9.00;;;7.38;;
13832;SDS011;6987;19.472;-99.276;2023-04-24T09:22:42;10.05;;;8.73;;
13832;SDS011;6987;19.472;-99.276;2023-04-24T09:25:11;10.00;;;7.75;;
13832;SDS011;6987;19.472;-99.276;2023-04-24T09:27:43;10.93;;;9.07;;
13832;SDS011;6987;19.472;-99.276;2023-04-24T09:30:14;8.68;;;7.20;;
13832;SDS011;6987;19.472;-99.276;2023-04-24T09:32:50;13.27;;;8.38;;
13832;SDS011;6987;19.472;-99.276;2023-04-24T09:35:40;8.50;;;7.70;;
13832;SDS011;6987;19.472;-99.276;2023-04-24T09:38:10;9.82;;;7.35;;
13832;SDS011;6987;19.472;-99.276;2023-04-24T09:40:39;9.02;;;8.13;;
13832;SDS011;6987;19.472;-99.276;2023-04-24T09:43:10;10.40;;;7.22;;
13832;SDS011;6987;19.472;-99.276;2023-04-24T09:45:41;11.38;;;8.02;;
13832;SDS011;6987;19.472;-99.276;2023-04-24T09:48:10;9.60;;;8.70;;
13832;SDS011;6987;19.472;-99.276;2023-04-24T09:50:39;12.15;;;8.23;;
13832;SDS011;6987;19.472;-99.276;2023-04-24T09:53:14;10.00;;;8.50;;
13832;SDS011;6987;19.472;-99.276;2023-04-24T09:55:45;8.85;;;8.00;;
13832;SDS011;6987;19.472;-99.276;2023-04-24T09:58:15;11.13;;;9.45;;
13832;SDS011;6987;19.472;-99.276;2023-04-24T10:00:45;12.65;;;9.55;;
13832;SDS011;6987;19.472;-99.276;2023-04-24T10:03:14;12.02;;;8.70;;
13832;SDS011;6987;19.472;-99.276;2023-04-24T10:05:46;10.13;;;8.40;;
13832;SDS011;6987;19.472;-99.276;2023-04-24T10:08:15;10.00;;;8.85;;
13832;SDS011;6987;19.472;-99.276;2023-04-24T10:10:45;10.30;;;9.27;;
13832;SDS011;6987;19.472;-99.276;2023-04-24T10:13:14;11.07;;;9.35;;
13832;SDS011;6987;19.472;-99.276;2023-04-24T10:15:45;16.73;;;9.82;;
13832;SDS011;6987;19.472;-99.276;2023-04-24T10:18:15;9.88;;;8.90;;
13832;SDS011;6987;19.472;-99.276;2023-04-24T10:20:44;11.48;;;9.38;;
13832;SDS011;6987;19.472;-99.276;2023-04-24T10:23:13;13.95;;;9.48;;
13832;SDS011;6987;19.472;-99.276;2023-04-24T10:25:44;10.20;;;9.30;;
13832;SDS011;6987;19.472;-99.276;2023-04-24T10:28:14;12.65;;;9.27;;
13832;SDS011;6987;19.472;-99.276;2023-04-24T10:30:43;13.70;;;9.77;;
13832;SDS011;6987;19.472;-99.276;2023-04-24T10:33:13;11.95;;;9.32;;
13832;SDS011;6987;19.472;-99.276;2023-04-24T10:35:44;11.35;;;9.05;;
13832;SDS011;6987;19.472;-99.276;2023-04-24T10:38:16;18.05;;;9.23;;
13832;SDS011;6987;19.472;-99.276;2023-04-24T10:40:46;14.77;;;9.88;;
13832;SDS011;6987;19.472;-99.276;2023-04-24T10:43:16;11.63;;;9.98;;
13832;SDS011;6987;19.472;-99.276;2023-04-24T10:46:00;10.13;;;9.07;;
13832;SDS011;6987;19.472;-99.276;2023-04-24T10:48:31;15.60;;;10.13;;
13832;SDS011;6987;19.472;-99.276;2023-04-24T10:51:00;13.13;;;9.77;;
13832;SDS011;6987;19.472;-99.276;2023-04-24T10:53:30;10.98;;;9.55;;
13832;SDS011;6987;19.472;-99.276;2023-04-24T10:56:00;12.60;;;9.40;;
13832;SDS011;6987;19.472;-99.276;2023-04-24T10:58:40;10.50;;;9.50;;
13832;SDS011;6987;19.472;-99.276;2023-04-24T11:01:23;15.23;;;9.73;;
13832;SDS011;6987;19.472;-99.276;2023-04-24T11:03:56;11.88;;;9.52;;
13832;SDS011;6987;19.472;-99.276;2023-04-24T11:06:29;11.40;;;9.50;;
13832;SDS011;6987;19.472;-99.276;2023-04-24T11:09:03;10.82;;;9.20;;
13832;SDS011;6987;19.472;-99.276;2023-04-24T11:11:33;9.82;;;8.88;;
13832;SDS011;6987;19.472;-99.276;2023-04-24T11:14:06;11.52;;;10.13;;
13832;SDS011;6987;19.472;-99.276;2023-04-24T11:16:44;13.60;;;9.43;;
13832;SDS011;6987;19.472;-99.276;2023-04-24T11:19:25;10.40;;;9.30;;
13832;SDS011;6987;19.472;-99.276;2023-04-24T11:21:55;11.68;;;9.45;;
13832;SDS011;6987;19.472;-99.276;2023-04-24T11:24:26;11.73;;;10.20;;
13832;SDS011;6987;19.472;-99.276;2023-04-24T11:26:57;12.25;;;9.82;;
13832;SDS011;6987;19.472;-99.276;2023-04-24T11:29:43;11.15;;;9.85;;
13832;SDS011;6987;19.472;-99.276;2023-04-24T11:32:16;15.60;;;10.98;;
13832;SDS011;6987;19.472;-99.276;2023-04-24T11:34:51;15.80;;;10.90;;
13832;SDS011;6987;19.472;-99.276;2023-04-24T11:37:21;12.52;;;11.02;;
13832;SDS011;6987;19.472;-99.276;2023-04-24T11:39:51;11.77;;;10.57;;
13832;SDS011;6987;19.472;-99.276;2023-04-24T11:42:20;14.20;;;11.02;;
13832;SDS011;6987;19.472;-99.276;2023-04-24T11:44:52;12.50;;;10.57;;
13832;SDS011;6987;19.472;-99.276;2023-04-24T11:47:27;11.90;;;10.38;;
13832;SDS011;6987;19.472;-99.276;2023-04-24T11:49:58;12.63;;;10.63;;
13832;SDS011;6987;19.472;-99.276;2023-04-24T11:52:28;12.43;;;10.65;;
13832;SDS011;6987;19.472;-99.276;2023-04-24T11:54:57;11.57;;;10.48;;
13832;SDS011;6987;19.472;-99.276;2023-04-24T11:57:26;13.15;;;10.63;;
13832;SDS011;6987;19.472;-99.276;2023-04-24T11:59:59;12.18;;;10.90;;
13832;SDS011;6987;19.472;-99.276;2023-04-24T12:02:28;14.95;;;10.40;;
13832;SDS011;6987;19.472;-99.276;2023-04-24T12:04:59;20.67;;;11.73;;
13832;SDS011;6987;19.472;-99.276;2023-04-24T12:07:27;11.63;;;10.43;;
13832;SDS011;6987;19.472;-99.276;2023-04-24T12:09:57;15.00;;;11.32;;
13832;SDS011;6987;19.472;-99.276;2023-04-24T12:12:27;12.23;;;10.52;;
13832;SDS011;6987;19.472;-99.276;2023-04-24T12:14:56;11.73;;;10.52;;
13832;SDS011;6987;19.472;-99.276;2023-04-24T12:17:26;11.82;;;10.50;;
13832;SDS011;6987;19.472;-99.276;2023-04-24T12:20:01;13.43;;;11.02;;
13832;SDS011;6987;19.472;-99.276;2023-04-24T12:22:42;13.25;;;11.43;;
13832;SDS011;6987;19.472;-99.276;2023-04-24T12:25:13;16.42;;;10.32;;
13832;SDS011;6987;19.472;-99.276;2023-04-24T12:27:42;21.00;;;11.23;;
13832;SDS011;6987;19.472;-99.276;2023-04-24T12:30:12;23.33;;;11.07;;
13832;SDS011;6987;19.472;-99.276;2023-04-24T12:32:41;15.00;;;10.40;;
13832;SDS011;6987;19.472;-99.276;2023-04-24T12:35:13;25.10;;;11.90;;
13832;SDS011;6987;19.472;-99.276;2023-04-24T12:37:42;14.75;;;10.57;;
13832;SDS011;6987;19.472;-99.276;2023-04-24T12:40:12;18.60;;;10.57;;
13832;SDS011;6987;19.472;-99.276;2023-04-24T12:42:42;14.60;;;10.98;;
13832;SDS011;6987;19.472;-99.276;2023-04-24T12:45:11;13.77;;;11.70;;
13832;SDS011;6987;19.472;-99.276;2023-04-24T12:47:40;12.63;;;10.55;;
13832;SDS011;6987;19.472;-99.276;2023-04-24T12:50:10;17.25;;;11.00;;
13832;SDS011;6987;19.472;-99.276;2023-04-24T12:52:41;15.88;;;12.10;;
13832;SDS011;6987;19.472;-99.276;2023-04-24T12:55:10;15.18;;;11.65;;
13832;SDS011;6987;19.472;-99.276;2023-04-24T12:57:39;20.00;;;11.65;;
13832;SDS011;6987;19.472;-99.276;2023-04-24T13:00:08;16.25;;;12.13;;
13832;SDS011;6987;19.472;-99.276;2023-04-24T13:02:37;17.75;;;11.32;;
13832;SDS011;6987;19.472;-99.276;2023-04-24T13:05:07;18.95;;;12.02;;
13832;SDS011;6987;19.472;-99.276;2023-04-24T13:07:37;18.30;;;12.55;;
13832;SDS011;6987;19.472;-99.276;2023-04-24T13:10:08;17.20;;;11.52;;
13832;SDS011;6987;19.472;-99.276;2023-04-24T13:12:39;15.23;;;11.75;;
13832;SDS011;6987;19.472;-99.276;2023-04-24T13:15:11;16.45;;;12.60;;
13832;SDS011;6987;19.472;-99.276;2023-04-24T13:17:40;15.02;;;11.80;;
13832;SDS011;6987;19.472;-99.276;2023-04-24T13:20:09;18.70;;;11.50;;
13832;SDS011;6987;19.472;-99.276;2023-04-24T13:22:38;14.52;;;11.77;;
13832;SDS011;6987;19.472;-99.276;2023-04-24T13:25:09;16.92;;;11.60;;
13832;SDS011;6987;19.472;-99.276;2023-04-24T13:27:38;18.25;;;10.75;;
13832;SDS011;6987;19.472;-99.276;2023-04-24T13:30:07;13.05;;;11.00;;
13832;SDS011;6987;19.472;-99.276;2023-04-24T13:32:36;15.10;;;10.88;;
13832;SDS011;6987;19.472;-99.276;2023-04-24T13:35:06;13.88;;;10.63;;
13832;SDS011;6987;19.472;-99.276;2023-04-24T13:37:35;14.18;;;10.88;;
13832;SDS011;6987;19.472;-99.276;2023-04-24T13:40:04;11.23;;;10.13;;
13832;SDS011;6987;19.472;-99.276;2023-04-24T13:42:36;13.35;;;10.73;;
13832;SDS011;6987;19.472;-99.276;2023-04-24T13:45:05;14.35;;;10.23;;
13832;SDS011;6987;19.472;-99.276;2023-04-24T13:47:34;12.88;;;10.75;;
13832;SDS011;6987;19.472;-99.276;2023-04-24T13:50:03;12.82;;;11.02;;
13832;SDS011;6987;19.472;-99.276;2023-04-24T13:52:33;12.73;;;11.40;;
13832;SDS011;6987;19.472;-99.276;2023-04-24T13:55:01;14.70;;;11.38;;
13832;SDS011;6987;19.472;-99.276;2023-04-24T13:57:31;15.90;;;11.30;;
13832;SDS011;6987;19.472;-99.276;2023-04-24T14:00:01;13.45;;;11.57;;
13832;SDS011;6987;19.472;-99.276;2023-04-24T14:02:31;13.43;;;10.32;;
13832;SDS011;6987;19.472;-99.276;2023-04-24T14:05:00;13.27;;;11.80;;
13832;SDS011;6987;19.472;-99.276;2023-04-24T14:07:29;12.70;;;11.25;;
13832;SDS011;6987;19.472;-99.276;2023-04-24T14:09:58;14.02;;;11.90;;
13832;SDS011;6987;19.472;-99.276;2023-04-24T14:12:27;15.65;;;12.02;;
13832;SDS011;6987;19.472;-99.276;2023-04-24T14:14:56;12.60;;;11.43;;
13832;SDS011;6987;19.472;-99.276;2023-04-24T14:17:27;16.33;;;11.18;;
13832;SDS011;6987;19.472;-99.276;2023-04-24T14:19:56;12.85;;;11.35;;
13832;SDS011;6987;19.472;-99.276;2023-04-24T14:22:26;12.70;;;11.13;;
13832;SDS011;6987;19.472;-99.276;2023-04-24T14:24:55;11.93;;;10.50;;
13832;SDS011;6987;19.472;-99.276;2023-04-24T14:27:24;14.27;;;11.18;;
13832;SDS011;6987;19.472;-99.276;2023-04-24T14:29:53;21.50;;;10.95;;
13832;SDS011;6987;19.472;-99.276;2023-04-24T14:32:22;14.50;;;10.90;;
13832;SDS011;6987;19.472;-99.276;2023-04-24T14:34:53;12.88;;;10.45;;
13832;SDS011;6987;19.472;-99.276;2023-04-24T14:37:22;17.55;;;10.63;;
13832;SDS011;6987;19.472;-99.276;2023-04-24T14:39:51;17.75;;;11.43;;